Valtellina — ICKF — position and weather

sailwx.info

Track history (hours):
 
Tides and Currents Weather Stations Pressure Air Temp Water Temp Dewpoint Dewpoint Depression Visibility Wind Speed Wind Dir Waves Ship Positions

Valtellina

Last reported at 2015-Sep-01 02:33 UTC. Time now 2015-Sep-01 06:00 UTC.
Position N 37°32' E 023°45'.

Length 184 m; draft 9.3 m.

Type: Ship. MMSI: 247243900.

Date/timePositionNaut miles runAvg speedWind from/ knotsBaromVisibWave heightAir tempDewpointWater temp
2015-Sep-01 02:33N 37°32' E 023°45'1312.9
2015-Sep-01 01:33N 37°44' E 023°40'1111.2
2015-Sep-01 00:33N 37°50' E 023°28'1313.3
2015-Aug-31 23:33N 37°53' E 023°11'5 0.2
2015-Aug-30 14:09N 37°54' E 023°05'1 0.9
2015-Aug-30 13:24N 37°54' E 023°04'0 0.1
2015-Aug-30 11:18N 37°54' E 023°04'0 0.0
2015-Aug-30 10:24N 37°54' E 023°04'0 0.1
2015-Aug-30 09:33N 37°54' E 023°04'0 0.1
2015-Aug-30 08:33N 37°54' E 023°04'0 0.0
2015-Aug-30 07:30N 37°54' E 023°04'0 0.1
2015-Aug-30 06:33N 37°54' E 023°04'0 0.0
2015-Aug-30 05:27N 37°54' E 023°05'0 0.0
2015-Aug-30 04:30N 37°54' E 023°05'0 0.1
2015-Aug-30 03:27N 37°54' E 023°05'0 0.0
2015-Aug-30 02:33N 37°54' E 023°05'0 0.0
2015-Aug-30 01:33N 37°54' E 023°05'0 0.0
2015-Aug-30 00:33N 37°54' E 023°05'0 0.0
2015-Aug-29 23:33N 37°54' E 023°05'0 0.1
2015-Aug-29 22:33N 37°54' E 023°04'0 0.1
2015-Aug-29 21:33N 37°54' E 023°04'0 0.0
2015-Aug-29 20:24N 37°54' E 023°04'2 2.2
2015-Aug-29 19:31N 37°53' E 023°07'9 8.9
2015-Aug-29 18:33N 37°52' E 023°17'1312.6
2015-Aug-29 17:33N 37°50' E 023°33'1010.3
2015-Aug-29 16:33N 37°44' E 023°43'1313.1
2015-Aug-29 15:33N 37°31' E 023°49'1313.2
2015-Aug-29 14:33N 37°18' E 023°51'1512.6
2015-Aug-29 13:24N 37°04' E 023°54'  
2015-Aug-27 03:29N 37°07' E 015°43'25 0.7
2015-Aug-25 13:34N 37°12' E 015°13'10 9.9
2015-Aug-25 12:34N 37°11' E 015°25'1313.3
2015-Aug-25 11:33N 37°09' E 015°42'1413.0
2015-Aug-25 10:27N 37°06' E 015°60'1212.6
2015-Aug-25 09:31N 37°05' E 016°14'1312.9
2015-Aug-25 08:33N 37°03' E 016°30'1313.1
2015-Aug-25 07:33N 37°01' E 016°46'1313.2
2015-Aug-25 06:32N 36°59' E 017°03'1413.2
2015-Aug-25 05:31N 36°57' E 017°19'30511.3
2015-Aug-24 02:32N 37°26' E 023°40'1313.2
2015-Aug-24 01:34N 37°39' E 023°42'1312.6
2015-Aug-24 00:34N 37°50' E 023°34'1313.2
2015-Aug-23 23:33N 37°52' E 023°18'10 0.4
2015-Aug-22 21:33N 37°55' E 023°05'1 0.4
2015-Aug-22 19:32N 37°54' E 023°04'0 0.0
2015-Aug-22 18:26N 37°54' E 023°04'0 0.0
2015-Aug-22 17:32N 37°54' E 023°04'0 0.0
2015-Aug-22 16:20N 37°54' E 023°04'0 0.0
2015-Aug-22 15:32N 37°54' E 023°04'0 0.0
2015-Aug-22 14:29N 37°54' E 023°04'0 0.0
2015-Aug-22 09:14N 37°54' E 023°05'0 0.1
2015-Aug-22 08:32N 37°54' E 023°04'0 0.1
2015-Aug-22 07:29N 37°54' E 023°05'0 0.0
2015-Aug-22 03:14N 37°54' E 023°05'  
Track history (hours):
 
Tides and Currents Weather Stations Pressure Air Temp Water Temp Dewpoint Dewpoint Depression Visibility Wind Speed Wind Dir Waves Ship Positions

Valtellina

Last reported at 2015-Sep-01 02:33 UTC. Time now 2015-Sep-01 06:00 UTC.
Position N 37°32' E 023°45'.

Length 184 m; draft 9.3 m.

Type: Ship. MMSI: 247243900.

Date/timePositionNaut miles runAvg speedWind from/ knotsBaromVisibWave heightAir tempDewpointWater temp
2015-Sep-01 02:33N 37°32' E 023°45'1312.9
2015-Sep-01 01:33N 37°44' E 023°40'1111.2
2015-Sep-01 00:33N 37°50' E 023°28'1313.3
2015-Aug-31 23:33N 37°53' E 023°11'5 0.2
2015-Aug-30 14:09N 37°54' E 023°05'1 0.9
2015-Aug-30 13:24N 37°54' E 023°04'0 0.1
2015-Aug-30 11:18N 37°54' E 023°04'0 0.0
2015-Aug-30 10:24N 37°54' E 023°04'0 0.1
2015-Aug-30 09:33N 37°54' E 023°04'0 0.1
2015-Aug-30 08:33N 37°54' E 023°04'0 0.0
2015-Aug-30 07:30N 37°54' E 023°04'0 0.1
2015-Aug-30 06:33N 37°54' E 023°04'0 0.0
2015-Aug-30 05:27N 37°54' E 023°05'0 0.0
2015-Aug-30 04:30N 37°54' E 023°05'0 0.1
2015-Aug-30 03:27N 37°54' E 023°05'0 0.0
2015-Aug-30 02:33N 37°54' E 023°05'0 0.0
2015-Aug-30 01:33N 37°54' E 023°05'0 0.0
2015-Aug-30 00:33N 37°54' E 023°05'0 0.0
2015-Aug-29 23:33N 37°54' E 023°05'0 0.1
2015-Aug-29 22:33N 37°54' E 023°04'0 0.1
2015-Aug-29 21:33N 37°54' E 023°04'0 0.0
2015-Aug-29 20:24N 37°54' E 023°04'2 2.2
2015-Aug-29 19:31N 37°53' E 023°07'9 8.9
2015-Aug-29 18:33N 37°52' E 023°17'1312.6
2015-Aug-29 17:33N 37°50' E 023°33'1010.3
2015-Aug-29 16:33N 37°44' E 023°43'1313.1
2015-Aug-29 15:33N 37°31' E 023°49'1313.2
2015-Aug-29 14:33N 37°18' E 023°51'1512.6
2015-Aug-29 13:24N 37°04' E 023°54'  
2015-Aug-27 03:29N 37°07' E 015°43'25 0.7
2015-Aug-25 13:34N 37°12' E 015°13'10 9.9
2015-Aug-25 12:34N 37°11' E 015°25'1313.3
2015-Aug-25 11:33N 37°09' E 015°42'1413.0
2015-Aug-25 10:27N 37°06' E 015°60'1212.6
2015-Aug-25 09:31N 37°05' E 016°14'1312.9
2015-Aug-25 08:33N 37°03' E 016°30'1313.1
2015-Aug-25 07:33N 37°01' E 016°46'1313.2
2015-Aug-25 06:32N 36°59' E 017°03'1413.2
2015-Aug-25 05:31N 36°57' E 017°19'30511.3
2015-Aug-24 02:32N 37°26' E 023°40'1313.2
2015-Aug-24 01:34N 37°39' E 023°42'1312.6
2015-Aug-24 00:34N 37°50' E 023°34'1313.2
2015-Aug-23 23:33N 37°52' E 023°18'10 0.4
2015-Aug-22 21:33N 37°55' E 023°05'1 0.4
2015-Aug-22 19:32N 37°54' E 023°04'0 0.0
2015-Aug-22 18:26N 37°54' E 023°04'0 0.0
2015-Aug-22 17:32N 37°54' E 023°04'0 0.0
2015-Aug-22 16:20N 37°54' E 023°04'0 0.0
2015-Aug-22 15:32N 37°54' E 023°04'0 0.0
2015-Aug-22 14:29N 37°54' E 023°04'0 0.0
2015-Aug-22 09:14N 37°54' E 023°05'0 0.1
2015-Aug-22 08:32N 37°54' E 023°04'0 0.1
2015-Aug-22 07:29N 37°54' E 023°05'0 0.0
2015-Aug-22 03:14N 37°54' E 023°05'  

Dump ship's entire track history